createdAt,value
2018-12-31T00:01:00.391Z,18.30
2018-12-31T00:03:27.464Z,18.93
2018-12-31T00:05:54.188Z,17.83
2018-12-31T00:08:20.911Z,18.83
2018-12-31T00:10:47.993Z,17.40
2018-12-31T00:13:14.695Z,15.80
2018-12-31T00:15:41.419Z,16.67
2018-12-31T00:18:08.143Z,17.90
2018-12-31T00:20:34.861Z,20.37
2018-12-31T00:23:01.591Z,19.70
2018-12-31T00:25:28.320Z,20.00
2018-12-31T00:27:55.040Z,17.77
2018-12-31T00:30:24.329Z,16.90
2018-12-31T00:32:51.024Z,16.90
2018-12-31T00:35:17.775Z,17.23
2018-12-31T00:37:44.503Z,17.07
2018-12-31T00:40:11.235Z,17.27
2018-12-31T00:42:37.969Z,16.93
2018-12-31T00:45:04.916Z,17.17
2018-12-31T00:47:31.648Z,15.83
2018-12-31T00:49:58.364Z,16.07
2018-12-31T00:52:25.332Z,13.97
2018-12-31T00:54:52.055Z,15.03
2018-12-31T00:57:18.773Z,15.27
2018-12-31T00:59:45.523Z,14.67
2018-12-31T01:02:12.329Z,16.47
2018-12-31T01:04:39.424Z,14.60
2018-12-31T01:07:06.142Z,16.73
2018-12-31T01:09:32.869Z,16.27
2018-12-31T01:11:59.586Z,16.73
2018-12-31T01:14:26.296Z,17.80
2018-12-31T01:16:53.012Z,16.50
2018-12-31T01:19:19.719Z,17.70
2018-12-31T01:21:46.487Z,17.57
2018-12-31T01:24:13.205Z,16.67
2018-12-31T01:26:39.920Z,18.93
2018-12-31T01:29:26.265Z,17.43
2018-12-31T01:31:52.975Z,16.60
2018-12-31T01:34:19.687Z,17.50
2018-12-31T01:36:46.387Z,17.90
2018-12-31T01:39:13.095Z,19.27
2018-12-31T01:41:41.736Z,18.07
2018-12-31T01:44:08.487Z,17.27
2018-12-31T01:46:35.205Z,17.93
2018-12-31T01:49:01.930Z,18.07
2018-12-31T01:51:28.640Z,17.37
2018-12-31T01:53:55.355Z,17.63
2018-12-31T01:56:22.080Z,20.00
2018-12-31T01:58:48.779Z,17.37
2018-12-31T02:01:15.494Z,16.43
2018-12-31T02:03:42.200Z,16.60
2018-12-31T02:06:08.923Z,13.50
2018-12-31T02:08:35.624Z,15.40
2018-12-31T02:11:02.341Z,17.03
2018-12-31T02:13:29.393Z,17.60
2018-12-31T02:15:56.104Z,15.80
2018-12-31T02:18:22.843Z,15.90
2018-12-31T02:20:49.551Z,14.33
2018-12-31T02:23:16.272Z,14.60
2018-12-31T02:25:42.990Z,14.93
2018-12-31T02:28:09.699Z,15.37
2018-12-31T02:30:36.625Z,14.50
2018-12-31T02:33:03.341Z,14.40
2018-12-31T02:35:30.143Z,13.17
2018-12-31T02:37:56.851Z,13.33
2018-12-31T02:40:23.556Z,13.90
2018-12-31T02:42:50.335Z,14.93
2018-12-31T02:45:17.063Z,13.70
2018-12-31T02:47:43.879Z,16.77
2018-12-31T02:50:10.616Z,15.57
2018-12-31T02:52:37.396Z,14.93
2018-12-31T02:55:04.323Z,15.83
2018-12-31T02:57:31.027Z,15.70
2018-12-31T02:59:59.071Z,16.33
2018-12-31T03:02:26.064Z,14.93
2018-12-31T03:04:52.764Z,15.70
2018-12-31T03:07:19.470Z,16.73
2018-12-31T03:09:46.189Z,16.47
2018-12-31T03:12:12.897Z,17.53
2018-12-31T03:14:39.612Z,20.53
2018-12-31T03:17:06.391Z,17.43
2018-12-31T03:19:33.183Z,17.43
2018-12-31T03:21:59.890Z,21.57
2018-12-31T03:24:26.603Z,19.30
2018-12-31T03:26:53.326Z,21.03
2018-12-31T03:29:20.028Z,18.97
2018-12-31T03:31:46.757Z,21.50
2018-12-31T03:34:13.475Z,22.50
2018-12-31T03:36:40.204Z,20.83
2018-12-31T03:39:06.928Z,22.73
2018-12-31T03:41:33.642Z,25.70
2018-12-31T03:44:00.355Z,22.40
2018-12-31T03:46:27.074Z,22.47
2018-12-31T03:48:53.813Z,27.27
2018-12-31T03:51:20.724Z,23.73
2018-12-31T03:53:47.443Z,27.17
2018-12-31T03:56:14.176Z,26.83
2018-12-31T03:58:40.940Z,25.63
2018-12-31T04:01:07.755Z,25.83
2018-12-31T04:03:34.475Z,27.43
2018-12-31T04:06:01.208Z,29.07
2018-12-31T04:08:27.961Z,31.03
2018-12-31T04:10:54.675Z,30.63
2018-12-31T04:13:21.405Z,30.83
2018-12-31T04:15:48.121Z,30.30
2018-12-31T04:18:14.841Z,32.00
2018-12-31T04:20:41.558Z,30.27
2018-12-31T04:23:08.290Z,31.67
2018-12-31T04:25:35.016Z,32.87
2018-12-31T04:28:01.767Z,32.57
2018-12-31T04:30:28.477Z,33.03
2018-12-31T04:32:55.562Z,32.20
2018-12-31T04:35:22.256Z,33.37
2018-12-31T04:37:49.199Z,32.60
2018-12-31T04:40:15.910Z,32.77
2018-12-31T04:42:42.633Z,34.47
2018-12-31T04:45:09.353Z,30.57
2018-12-31T04:47:36.107Z,33.87
2018-12-31T04:50:03.617Z,34.80
2018-12-31T04:52:30.332Z,33.43
2018-12-31T04:54:57.053Z,37.73
2018-12-31T04:57:23.768Z,37.10
2018-12-31T04:59:50.488Z,33.07
2018-12-31T05:02:17.204Z,33.90
2018-12-31T05:04:43.919Z,35.27
2018-12-31T05:07:10.656Z,32.67
2018-12-31T05:09:37.388Z,30.27
2018-12-31T05:12:04.118Z,35.10
2018-12-31T05:14:30.869Z,30.33
2018-12-31T05:16:57.582Z,32.50
2018-12-31T05:19:24.301Z,32.27
2018-12-31T05:21:51.028Z,32.33
2018-12-31T05:24:18.231Z,34.30
2018-12-31T05:26:44.956Z,32.50
2018-12-31T05:29:11.683Z,32.07
2018-12-31T05:31:38.397Z,31.87
2018-12-31T05:34:05.099Z,29.63
2018-12-31T05:36:31.812Z,32.17
2018-12-31T05:38:58.532Z,31.73
2018-12-31T05:41:25.261Z,32.20
2018-12-31T05:43:51.999Z,30.50
2018-12-31T05:46:18.697Z,29.93
2018-12-31T05:48:45.411Z,31.60
2018-12-31T05:51:12.118Z,31.80
2018-12-31T05:53:38.851Z,30.67
2018-12-31T05:56:05.583Z,33.10
2018-12-31T05:58:32.420Z,30.63
2018-12-31T06:00:59.153Z,29.57
2018-12-31T06:03:25.888Z,32.23
2018-12-31T06:05:52.604Z,35.03
2018-12-31T06:08:19.387Z,36.83
2018-12-31T06:10:46.274Z,33.87
2018-12-31T06:13:13.032Z,35.23
2018-12-31T06:15:40.280Z,34.83
2018-12-31T06:18:06.989Z,31.90
2018-12-31T06:20:33.716Z,30.83
2018-12-31T06:23:00.468Z,35.87
2018-12-31T06:25:27.203Z,34.27
2018-12-31T06:27:53.917Z,34.80
2018-12-31T06:30:21.718Z,34.60
2018-12-31T06:32:48.511Z,33.47
2018-12-31T06:35:15.217Z,33.87
2018-12-31T06:37:42.276Z,33.23
2018-12-31T06:40:09.003Z,35.20
2018-12-31T06:42:35.722Z,36.50
2018-12-31T06:45:02.653Z,32.37
2018-12-31T06:47:29.375Z,32.27
2018-12-31T06:49:56.094Z,32.50
2018-12-31T06:52:22.833Z,36.00
2018-12-31T06:54:49.552Z,31.93
2018-12-31T06:57:16.276Z,33.33
2018-12-31T06:59:43.024Z,31.03
2018-12-31T07:02:09.748Z,31.70
2018-12-31T07:04:36.739Z,33.87
2018-12-31T07:07:03.468Z,33.60
2018-12-31T07:09:30.183Z,32.00
2018-12-31T07:11:56.905Z,35.17
2018-12-31T07:14:23.628Z,34.97
2018-12-31T07:16:50.456Z,32.93
2018-12-31T07:19:17.176Z,33.83
2018-12-31T07:21:43.905Z,31.43
2018-12-31T07:24:11.076Z,32.87
2018-12-31T07:26:37.796Z,31.33
2018-12-31T07:29:04.545Z,32.20
2018-12-31T07:31:31.812Z,32.37
2018-12-31T07:33:58.527Z,32.60
2018-12-31T07:36:25.251Z,31.27
2018-12-31T07:38:51.968Z,33.97
2018-12-31T07:41:18.697Z,33.27
2018-12-31T07:43:45.441Z,32.57
2018-12-31T07:46:12.144Z,32.00
2018-12-31T07:48:38.853Z,32.07
2018-12-31T07:51:05.567Z,31.97
2018-12-31T07:53:32.279Z,31.90
2018-12-31T07:55:59.242Z,33.33
2018-12-31T07:58:26.077Z,30.53
2018-12-31T08:00:52.787Z,33.90
2018-12-31T08:03:19.523Z,31.33
2018-12-31T08:05:46.351Z,30.40
2018-12-31T08:08:13.417Z,34.53
2018-12-31T08:10:40.256Z,31.73
2018-12-31T08:13:06.987Z,33.40
2018-12-31T08:15:33.728Z,32.67
2018-12-31T08:18:00.463Z,30.40
2018-12-31T08:20:27.292Z,27.50
2018-12-31T08:22:54.032Z,28.90
2018-12-31T08:25:20.751Z,31.23
2018-12-31T08:27:47.573Z,30.17
2018-12-31T08:30:18.887Z,32.53
2018-12-31T08:32:45.803Z,32.17
2018-12-31T08:35:12.531Z,29.67
2018-12-31T08:37:39.280Z,32.03
2018-12-31T08:40:05.981Z,31.83
2018-12-31T08:42:32.714Z,31.97
2018-12-31T08:44:59.431Z,31.53
2018-12-31T08:47:26.173Z,30.37
2018-12-31T08:49:52.941Z,31.97
2018-12-31T08:52:19.663Z,34.10
2018-12-31T08:54:46.384Z,31.00
2018-12-31T08:57:13.125Z,29.23
2018-12-31T08:59:39.848Z,29.73
2018-12-31T09:02:06.578Z,30.47
2018-12-31T09:04:33.313Z,30.67
2018-12-31T09:07:00.036Z,29.87
2018-12-31T09:09:26.763Z,32.00
2018-12-31T09:11:53.482Z,31.00
2018-12-31T09:14:20.210Z,29.23
2018-12-31T09:16:46.947Z,30.20
2018-12-31T09:19:13.649Z,30.57
2018-12-31T09:21:41.164Z,31.30
2018-12-31T09:24:07.886Z,30.83
2018-12-31T09:26:34.625Z,31.17
2018-12-31T09:29:01.361Z,31.83
2018-12-31T09:31:28.084Z,29.80
2018-12-31T09:33:54.795Z,30.87
2018-12-31T09:36:21.523Z,29.10
2018-12-31T09:38:48.280Z,29.60
2018-12-31T09:41:15.009Z,29.20
2018-12-31T09:43:41.749Z,29.23
2018-12-31T09:46:08.476Z,28.17
2018-12-31T09:48:35.308Z,27.43
2018-12-31T09:51:02.472Z,29.83
2018-12-31T09:53:29.207Z,28.33
2018-12-31T09:55:55.920Z,28.00
2018-12-31T09:58:22.723Z,28.93
2018-12-31T10:00:49.475Z,27.47
2018-12-31T10:03:16.207Z,27.67
2018-12-31T10:05:42.936Z,27.43
2018-12-31T10:08:09.659Z,27.97
2018-12-31T10:10:36.393Z,27.93
2018-12-31T10:13:03.140Z,27.67
2018-12-31T10:15:29.884Z,27.87
2018-12-31T10:17:56.616Z,25.23
2018-12-31T10:20:23.589Z,28.33
2018-12-31T10:22:50.303Z,26.90
2018-12-31T10:25:17.041Z,29.17
2018-12-31T10:27:43.759Z,26.83
2018-12-31T10:30:14.331Z,25.83
2018-12-31T10:48:41.728Z,24.83
2018-12-31T10:51:08.452Z,23.93
2018-12-31T10:53:35.220Z,24.07
2018-12-31T10:56:01.937Z,25.50
2018-12-31T10:58:28.679Z,24.10
2018-12-31T11:00:55.407Z,24.90
2018-12-31T11:03:22.128Z,26.67
2018-12-31T11:05:48.860Z,25.47
2018-12-31T11:08:15.588Z,24.33
2018-12-31T11:10:42.304Z,27.73
2018-12-31T11:13:09.020Z,24.43
2018-12-31T11:15:35.744Z,25.47
2018-12-31T11:18:02.478Z,25.73
2018-12-31T11:20:29.204Z,26.23
2018-12-31T11:22:56.155Z,24.77
2018-12-31T11:25:22.892Z,24.17
2018-12-31T11:27:49.972Z,25.27
2018-12-31T11:30:20.715Z,24.40
2018-12-31T11:32:47.512Z,24.93
2018-12-31T11:35:14.253Z,25.87
2018-12-31T11:37:40.984Z,24.33
2018-12-31T11:40:07.720Z,25.93
2018-12-31T11:42:34.484Z,25.83
2018-12-31T11:45:01.305Z,26.33
2018-12-31T11:47:28.043Z,26.10
2018-12-31T11:50:14.396Z,25.30
2018-12-31T11:52:41.116Z,27.20
2018-12-31T11:55:07.825Z,27.50
2018-12-31T11:57:34.538Z,28.20
2018-12-31T12:00:01.376Z,26.70
2018-12-31T12:02:28.094Z,28.57
2018-12-31T12:04:54.822Z,26.70
2018-12-31T12:07:21.651Z,27.13
2018-12-31T12:09:48.373Z,26.57
2018-12-31T12:12:15.347Z,27.97
2018-12-31T12:14:42.069Z,28.80
2018-12-31T12:17:08.799Z,26.90
2018-12-31T12:19:35.538Z,30.13
2018-12-31T12:22:02.277Z,29.17
2018-12-31T12:24:29.220Z,29.03
2018-12-31T12:26:55.948Z,30.77
2018-12-31T12:29:22.655Z,29.83
2018-12-31T12:31:49.396Z,30.30
2018-12-31T12:34:16.208Z,28.77
2018-12-31T12:36:42.930Z,29.27
2018-12-31T12:39:09.980Z,29.90
2018-12-31T12:41:36.937Z,29.80
2018-12-31T12:44:03.670Z,31.30
2018-12-31T12:46:30.452Z,30.17
2018-12-31T12:48:57.173Z,29.63
2018-12-31T12:51:23.897Z,29.07
2018-12-31T12:53:50.619Z,26.50
2018-12-31T12:56:17.945Z,27.87
2018-12-31T12:58:44.768Z,28.97
2018-12-31T13:01:11.513Z,28.13
2018-12-31T13:03:38.227Z,27.73
2018-12-31T13:06:05.461Z,26.57
2018-12-31T13:08:32.180Z,26.40
2018-12-31T13:10:59.204Z,29.00
2018-12-31T13:13:25.952Z,30.43
2018-12-31T13:15:52.675Z,27.10
2018-12-31T13:18:19.391Z,28.37
2018-12-31T13:20:46.121Z,28.87
2018-12-31T13:23:12.821Z,27.47
2018-12-31T13:25:40.050Z,29.80
2018-12-31T13:28:06.776Z,31.50
2018-12-31T13:30:34.211Z,31.27
2018-12-31T13:33:01.337Z,31.07
2018-12-31T13:35:47.692Z,31.07
2018-12-31T13:38:14.404Z,31.20
2018-12-31T13:40:41.108Z,32.40
2018-12-31T13:43:07.945Z,31.97
2018-12-31T13:45:34.656Z,31.67
2018-12-31T13:48:01.377Z,32.73
2018-12-31T13:50:28.534Z,31.63
2018-12-31T13:52:55.244Z,31.73
2018-12-31T13:55:21.970Z,33.83
2018-12-31T13:57:48.683Z,30.67
2018-12-31T14:00:15.412Z,31.33
2018-12-31T14:02:42.140Z,31.67
2018-12-31T14:05:09.544Z,32.57
2018-12-31T14:07:36.272Z,31.73
2018-12-31T14:10:04.157Z,30.87
2018-12-31T14:12:30.876Z,32.07
2018-12-31T14:14:57.589Z,30.73
2018-12-31T14:17:24.304Z,32.03
2018-12-31T14:19:51.425Z,32.57
2018-12-31T14:22:18.199Z,32.00
2018-12-31T14:24:44.956Z,31.07
2018-12-31T14:27:11.707Z,30.73
2018-12-31T14:29:38.433Z,33.13
2018-12-31T14:32:05.159Z,32.33
2018-12-31T14:34:32.286Z,36.20
2018-12-31T14:36:58.996Z,32.23
2018-12-31T14:39:25.710Z,31.20
2018-12-31T14:41:52.426Z,31.40
2018-12-31T14:44:19.162Z,30.17
2018-12-31T14:46:45.880Z,29.47
2018-12-31T14:49:12.739Z,30.87
2018-12-31T14:51:39.584Z,29.07
2018-12-31T14:54:06.301Z,27.60
2018-12-31T14:56:33.122Z,27.03
2018-12-31T14:58:59.849Z,28.87
2018-12-31T15:01:26.609Z,27.67
2018-12-31T15:03:53.341Z,30.63
2018-12-31T15:06:20.071Z,32.03
2018-12-31T15:08:46.792Z,31.00
2018-12-31T15:11:13.574Z,33.07
2018-12-31T15:13:40.356Z,33.10
2018-12-31T15:16:07.171Z,32.63
2018-12-31T15:18:33.977Z,32.93
2018-12-31T15:21:00.729Z,33.17
2018-12-31T15:23:27.456Z,32.70
2018-12-31T15:25:54.292Z,28.40
2018-12-31T15:28:21.015Z,28.70
2018-12-31T15:30:47.848Z,27.73
2018-12-31T15:33:14.987Z,27.43
2018-12-31T15:35:41.720Z,26.27
2018-12-31T15:38:08.436Z,24.37
2018-12-31T15:40:35.151Z,21.47
2018-12-31T15:43:01.892Z,22.00
2018-12-31T15:45:28.618Z,21.23
2018-12-31T15:47:55.350Z,22.63
2018-12-31T15:50:22.075Z,23.20
2018-12-31T15:52:48.822Z,21.03
2018-12-31T15:55:15.543Z,22.27
2018-12-31T15:57:42.299Z,21.60
2018-12-31T16:00:09.528Z,23.03
2018-12-31T16:02:36.262Z,23.23
2018-12-31T16:05:03.483Z,23.07
2018-12-31T16:07:30.208Z,22.63
2018-12-31T16:09:56.948Z,22.47
2018-12-31T16:12:23.699Z,22.17
2018-12-31T16:14:50.419Z,20.87
2018-12-31T16:17:17.155Z,20.80
2018-12-31T16:19:43.972Z,21.60
2018-12-31T16:22:10.692Z,21.33
2018-12-31T16:24:37.410Z,20.00
2018-12-31T16:27:04.135Z,22.10
2018-12-31T16:29:30.856Z,21.43
2018-12-31T16:31:57.584Z,22.40
2018-12-31T16:34:24.308Z,21.60
2018-12-31T16:36:51.048Z,21.07
2018-12-31T16:39:17.784Z,23.03
2018-12-31T16:41:44.492Z,21.90
2018-12-31T16:44:11.215Z,21.90
2018-12-31T16:46:38.428Z,22.27
2018-12-31T16:49:05.155Z,22.10
2018-12-31T16:51:31.865Z,23.10
2018-12-31T16:53:58.605Z,25.00
2018-12-31T16:56:25.331Z,25.47
2018-12-31T16:58:52.052Z,26.23
2018-12-31T17:01:19.368Z,24.93
2018-12-31T17:03:46.089Z,25.13
2018-12-31T17:06:12.803Z,27.93
2018-12-31T17:08:39.518Z,25.93
2018-12-31T17:11:06.232Z,30.60
2018-12-31T17:13:32.952Z,30.57
2018-12-31T17:15:59.660Z,31.33
2018-12-31T17:18:26.364Z,33.27
2018-12-31T17:20:53.192Z,35.57
2018-12-31T17:23:19.928Z,39.63
2018-12-31T17:25:46.660Z,43.80
2018-12-31T17:28:13.375Z,49.87
2018-12-31T17:30:40.087Z,60.23
2018-12-31T17:33:06.804Z,60.77
2018-12-31T17:35:33.520Z,77.80
2018-12-31T17:38:00.243Z,62.33
2018-12-31T17:40:26.961Z,63.27
2018-12-31T17:42:53.686Z,44.53
2018-12-31T17:45:23.218Z,48.27
2018-12-31T17:47:49.032Z,54.93
2018-12-31T17:50:15.747Z,57.40
2018-12-31T17:52:42.481Z,52.13
2018-12-31T17:55:09.199Z,55.27
2018-12-31T17:57:35.921Z,53.93
2018-12-31T18:00:04.172Z,51.20
2018-12-31T18:02:30.892Z,44.57
2018-12-31T18:04:57.719Z,50.47
2018-12-31T18:07:24.444Z,50.43
2018-12-31T18:09:51.197Z,46.83
2018-12-31T18:12:17.991Z,45.10
2018-12-31T18:14:44.718Z,48.90
2018-12-31T18:17:11.448Z,45.43
2018-12-31T18:19:38.266Z,49.80
2018-12-31T18:22:05.387Z,44.10
2018-12-31T18:24:32.371Z,42.47
2018-12-31T18:26:59.088Z,38.33
2018-12-31T18:29:25.912Z,38.47
2018-12-31T18:31:52.980Z,38.77
2018-12-31T18:34:20.239Z,36.13
2018-12-31T18:36:47.091Z,39.27
2018-12-31T18:39:13.815Z,37.87
2018-12-31T18:41:40.519Z,36.83
2018-12-31T18:44:07.234Z,29.10
2018-12-31T18:46:34.195Z,28.47
2018-12-31T18:49:00.932Z,32.43
2018-12-31T18:51:27.657Z,31.20
2018-12-31T18:53:54.368Z,31.47
2018-12-31T18:56:21.084Z,33.33
2018-12-31T18:58:48.444Z,34.73
2018-12-31T19:01:15.163Z,39.93
2018-12-31T19:03:41.907Z,37.77
2018-12-31T19:06:08.638Z,46.40
2018-12-31T19:08:35.372Z,44.60
2018-12-31T19:11:02.331Z,42.10
2018-12-31T19:13:29.047Z,45.43
2018-12-31T19:15:55.980Z,43.27
2018-12-31T19:18:22.696Z,41.20
2018-12-31T19:20:49.415Z,41.63
2018-12-31T19:23:16.385Z,38.60
2018-12-31T19:25:43.119Z,35.27
2018-12-31T19:28:09.832Z,37.00
2018-12-31T19:30:36.956Z,36.30
2018-12-31T19:33:03.695Z,38.40
2018-12-31T19:35:30.419Z,39.70
2018-12-31T19:37:57.143Z,41.67
2018-12-31T19:40:23.868Z,41.23
2018-12-31T19:42:50.616Z,46.23
2018-12-31T19:45:18.288Z,39.33
2018-12-31T19:47:45.004Z,41.30
2018-12-31T19:50:12.145Z,38.80
2018-12-31T19:52:38.863Z,40.23
2018-12-31T19:55:07.075Z,42.10
2018-12-31T19:57:34.119Z,40.53
2018-12-31T20:00:01.139Z,35.70
2018-12-31T20:02:27.869Z,31.57
2018-12-31T20:04:54.620Z,31.40
2018-12-31T20:07:21.388Z,32.33
2018-12-31T20:09:48.123Z,31.67
2018-12-31T20:12:14.844Z,33.03
2018-12-31T20:14:41.687Z,30.43
2018-12-31T20:17:08.423Z,30.20
2018-12-31T20:19:35.143Z,33.03
2018-12-31T20:22:01.869Z,33.53
2018-12-31T20:24:28.647Z,33.73
2018-12-31T20:26:55.366Z,31.27
2018-12-31T20:29:22.100Z,32.33
2018-12-31T20:31:49.127Z,33.83
2018-12-31T20:34:15.835Z,29.63
2018-12-31T20:36:42.550Z,30.93
2018-12-31T20:39:09.264Z,29.93
2018-12-31T20:41:35.994Z,31.13
2018-12-31T20:44:02.936Z,30.43
2018-12-31T20:46:29.652Z,31.10
2018-12-31T20:48:56.792Z,32.83
2018-12-31T20:51:23.499Z,33.63
2018-12-31T20:53:50.285Z,33.97
2018-12-31T20:56:17.012Z,32.23
2018-12-31T20:58:43.728Z,30.57
2018-12-31T21:01:10.453Z,31.33
2018-12-31T21:03:37.176Z,33.03
2018-12-31T21:06:03.889Z,32.10
2018-12-31T21:08:30.680Z,30.53
2018-12-31T21:10:57.403Z,33.33
2018-12-31T21:13:24.600Z,33.93
2018-12-31T21:15:51.327Z,35.17
2018-12-31T21:18:18.055Z,35.80
2018-12-31T21:20:44.767Z,36.97
2018-12-31T21:23:11.587Z,36.40
2018-12-31T21:25:38.323Z,39.10
2018-12-31T21:28:05.045Z,39.17
2018-12-31T21:30:31.769Z,39.63
2018-12-31T21:32:58.495Z,37.60
2018-12-31T21:35:25.824Z,33.83
2018-12-31T21:37:52.660Z,32.73
2018-12-31T21:40:20.118Z,33.13
2018-12-31T21:42:46.835Z,33.50
2018-12-31T21:45:13.570Z,34.93
2018-12-31T21:47:40.280Z,38.80
2018-12-31T21:50:07.933Z,37.40
2018-12-31T21:52:34.655Z,38.03
2018-12-31T21:55:01.392Z,37.63
2018-12-31T21:57:28.200Z,40.27
2018-12-31T21:59:55.015Z,36.70
2018-12-31T22:02:21.736Z,37.63
2018-12-31T22:04:48.567Z,41.43
2018-12-31T22:07:15.291Z,43.17
2018-12-31T22:09:42.019Z,40.90
2018-12-31T22:12:08.743Z,38.93
2018-12-31T22:14:35.536Z,42.40
2018-12-31T22:17:02.252Z,39.87
2018-12-31T22:19:28.974Z,38.40
2018-12-31T22:21:55.994Z,38.17
2018-12-31T22:24:23.251Z,40.17
2018-12-31T22:26:51.622Z,41.27
2018-12-31T22:29:18.616Z,41.67
2018-12-31T22:31:45.361Z,43.23
2018-12-31T22:34:12.071Z,43.37
2018-12-31T22:36:39.011Z,41.90
2018-12-31T22:39:05.835Z,45.00
2018-12-31T22:41:32.568Z,45.57
2018-12-31T22:43:59.317Z,44.67
2018-12-31T22:46:26.047Z,45.97
2018-12-31T22:48:52.771Z,44.60
2018-12-31T22:51:19.692Z,46.80
2018-12-31T22:53:46.428Z,48.43
2018-12-31T22:56:13.199Z,51.67
2018-12-31T22:58:39.920Z,48.43
2018-12-31T23:01:06.869Z,48.83
2018-12-31T23:03:33.591Z,47.40
2018-12-31T23:06:00.836Z,48.43
2018-12-31T23:08:27.676Z,51.00
2018-12-31T23:10:54.511Z,59.43
2018-12-31T23:13:21.588Z,160.57
2018-12-31T23:15:48.313Z,315.87
2018-12-31T23:18:15.040Z,435.27
2018-12-31T23:20:42.322Z,429.33
2018-12-31T23:23:09.079Z,621.97
2018-12-31T23:25:35.832Z,538.07
2018-12-31T23:28:02.815Z,352.20
2018-12-31T23:30:30.013Z,335.47
2018-12-31T23:32:56.743Z,322.47
2018-12-31T23:35:23.599Z,299.47
2018-12-31T23:37:50.339Z,311.17
2018-12-31T23:40:17.076Z,327.23
2018-12-31T23:42:43.817Z,303.63
2018-12-31T23:45:11.929Z,199.43
2018-12-31T23:47:38.701Z,139.30
2018-12-31T23:50:07.504Z,122.73
2018-12-31T23:52:34.220Z,127.40
2018-12-31T23:55:01.039Z,151.83
2018-12-31T23:57:27.768Z,165.10
2018-12-31T23:59:54.500Z,98.43
